sensor_id;sensor_type;location;lat;lon;timestamp;temperature;humidity
18225;DHT22;9237;48.590;8.854;2023-03-01T00:00:50;-2.20;99.90
18225;DHT22;9237;48.590;8.854;2023-03-01T00:03:17;-2.20;99.90
18225;DHT22;9237;48.590;8.854;2023-03-01T00:05:44;-2.30;99.90
18225;DHT22;9237;48.590;8.854;2023-03-01T00:08:13;-2.30;99.90
18225;DHT22;9237;48.590;8.854;2023-03-01T00:10:39;-2.30;99.90
18225;DHT22;9237;48.590;8.854;2023-03-01T00:13:06;-2.40;99.90
18225;DHT22;9237;48.590;8.854;2023-03-01T00:15:33;-2.40;99.90
18225;DHT22;9237;48.590;8.854;2023-03-01T00:18:00;-2.40;99.90
18225;DHT22;9237;48.590;8.854;2023-03-01T00:20:27;-2.40;99.90
18225;DHT22;9237;48.590;8.854;2023-03-01T00:22:54;-2.40;99.90
18225;DHT22;9237;48.590;8.854;2023-03-01T00:25:22;-2.40;99.90
18225;DHT22;9237;48.590;8.854;2023-03-01T00:27:49;-2.40;99.90
18225;DHT22;9237;48.590;8.854;2023-03-01T00:30:16;-2.30;99.90
18225;DHT22;9237;48.590;8.854;2023-03-01T00:32:42;-2.20;99.90
18225;DHT22;9237;48.590;8.854;2023-03-01T00:35:09;-2.20;99.90
18225;DHT22;9237;48.590;8.854;2023-03-01T00:37:36;-2.20;99.90
18225;DHT22;9237;48.590;8.854;2023-03-01T00:40:03;-2.20;99.90
18225;DHT22;9237;48.590;8.854;2023-03-01T00:42:32;-2.20;99.90
18225;DHT22;9237;48.590;8.854;2023-03-01T00:44:59;-2.20;99.90
18225;DHT22;9237;48.590;8.854;2023-03-01T00:47:28;-2.30;99.90
18225;DHT22;9237;48.590;8.854;2023-03-01T00:49:55;-2.40;99.90
18225;DHT22;9237;48.590;8.854;2023-03-01T00:52:22;-2.40;99.90
18225;DHT22;9237;48.590;8.854;2023-03-01T00:54:51;-2.40;99.90
18225;DHT22;9237;48.590;8.854;2023-03-01T00:57:18;-2.40;99.90
18225;DHT22;9237;48.590;8.854;2023-03-01T00:59:46;-2.30;99.90
18225;DHT22;9237;48.590;8.854;2023-03-01T01:02:13;-2.30;99.90
18225;DHT22;9237;48.590;8.854;2023-03-01T01:04:40;-2.20;99.90
18225;DHT22;9237;48.590;8.854;2023-03-01T01:07:06;-2.20;99.90
18225;DHT22;9237;48.590;8.854;2023-03-01T01:09:33;-2.30;99.90
18225;DHT22;9237;48.590;8.854;2023-03-01T01:12:00;-2.30;99.90
18225;DHT22;9237;48.590;8.854;2023-03-01T01:14:27;-2.30;99.90
18225;DHT22;9237;48.590;8.854;2023-03-01T01:16:55;-2.40;99.90
18225;DHT22;9237;48.590;8.854;2023-03-01T01:19:22;-2.50;99.90
18225;DHT22;9237;48.590;8.854;2023-03-01T01:21:49;-2.50;99.90
18225;DHT22;9237;48.590;8.854;2023-03-01T01:24:16;-2.60;99.90
18225;DHT22;9237;48.590;8.854;2023-03-01T01:26:44;-2.60;99.90
18225;DHT22;9237;48.590;8.854;2023-03-01T01:29:11;-2.60;99.90
18225;DHT22;9237;48.590;8.854;2023-03-01T01:31:40;-2.60;99.90
18225;DHT22;9237;48.590;8.854;2023-03-01T01:34:13;-2.60;99.90
18225;DHT22;9237;48.590;8.854;2023-03-01T01:36:40;-2.70;99.90
18225;DHT22;9237;48.590;8.854;2023-03-01T01:39:07;-2.70;99.90
18225;DHT22;9237;48.590;8.854;2023-03-01T01:41:40;-2.70;99.90
18225;DHT22;9237;48.590;8.854;2023-03-01T01:44:14;-2.80;99.90
18225;DHT22;9237;48.590;8.854;2023-03-01T01:46:43;-2.80;99.90
18225;DHT22;9237;48.590;8.854;2023-03-01T01:49:22;-2.80;99.90
18225;DHT22;9237;48.590;8.854;2023-03-01T01:51:55;-2.80;99.90
18225;DHT22;9237;48.590;8.854;2023-03-01T01:54:27;-2.90;99.90
18225;DHT22;9237;48.590;8.854;2023-03-01T01:56:57;-2.90;99.90
18225;DHT22;9237;48.590;8.854;2023-03-01T01:59:25;-2.90;99.90
18225;DHT22;9237;48.590;8.854;2023-03-01T02:01:54;-2.90;99.90
18225;DHT22;9237;48.590;8.854;2023-03-01T02:04:23;-2.90;99.90
18225;DHT22;9237;48.590;8.854;2023-03-01T02:06:55;-2.90;99.90
18225;DHT22;9237;48.590;8.854;2023-03-01T02:09:24;-3.00;99.90
18225;DHT22;9237;48.590;8.854;2023-03-01T02:11:52;-3.00;99.90
18225;DHT22;9237;48.590;8.854;2023-03-01T02:14:19;-3.10;99.90
18225;DHT22;9237;48.590;8.854;2023-03-01T02:16:46;-3.10;99.90
18225;DHT22;9237;48.590;8.854;2023-03-01T02:19:21;-3.10;99.90
18225;DHT22;9237;48.590;8.854;2023-03-01T02:21:56;-3.10;99.90
18225;DHT22;9237;48.590;8.854;2023-03-01T02:24:31;-3.10;99.90
18225;DHT22;9237;48.590;8.854;2023-03-01T02:27:00;-3.00;99.90
18225;DHT22;9237;48.590;8.854;2023-03-01T02:29:29;-3.00;99.90
18225;DHT22;9237;48.590;8.854;2023-03-01T02:31:58;-2.90;99.90
18225;DHT22;9237;48.590;8.854;2023-03-01T02:34:26;-2.80;99.90
18225;DHT22;9237;48.590;8.854;2023-03-01T02:36:57;-2.70;99.90
18225;DHT22;9237;48.590;8.854;2023-03-01T02:39:26;-2.70;99.90
18225;DHT22;9237;48.590;8.854;2023-03-01T02:41:56;-2.60;99.90
18225;DHT22;9237;48.590;8.854;2023-03-01T02:44:24;-2.50;99.90
18225;DHT22;9237;48.590;8.854;2023-03-01T02:46:54;-2.40;99.90
18225;DHT22;9237;48.590;8.854;2023-03-01T02:49:25;-2.40;99.90
18225;DHT22;9237;48.590;8.854;2023-03-01T02:52:05;-2.40;99.90
18225;DHT22;9237;48.590;8.854;2023-03-01T02:54:39;-2.40;99.90
18225;DHT22;9237;48.590;8.854;2023-03-01T02:57:07;-2.30;99.90
18225;DHT22;9237;48.590;8.854;2023-03-01T02:59:35;-2.30;99.90
18225;DHT22;9237;48.590;8.854;2023-03-01T03:02:06;-2.20;99.90
18225;DHT22;9237;48.590;8.854;2023-03-01T03:04:33;-2.10;99.90
18225;DHT22;9237;48.590;8.854;2023-03-01T03:07:00;-2.00;99.90
18225;DHT22;9237;48.590;8.854;2023-03-01T03:09:27;-2.00;99.90
18225;DHT22;9237;48.590;8.854;2023-03-01T03:11:54;-1.90;99.90
18225;DHT22;9237;48.590;8.854;2023-03-01T03:14:21;-1.90;99.90
18225;DHT22;9237;48.590;8.854;2023-03-01T03:16:49;-1.90;99.90
18225;DHT22;9237;48.590;8.854;2023-03-01T03:19:18;-2.00;99.90
18225;DHT22;9237;48.590;8.854;2023-03-01T03:21:46;-1.80;99.90
18225;DHT22;9237;48.590;8.854;2023-03-01T03:24:12;-1.80;99.90
18225;DHT22;9237;48.590;8.854;2023-03-01T03:26:39;-1.80;99.90
18225;DHT22;9237;48.590;8.854;2023-03-01T03:29:06;-1.80;99.90
18225;DHT22;9237;48.590;8.854;2023-03-01T03:31:33;-1.70;99.90
18225;DHT22;9237;48.590;8.854;2023-03-01T03:34:00;-1.70;99.90
18225;DHT22;9237;48.590;8.854;2023-03-01T03:36:28;-1.10;99.90
18225;DHT22;9237;48.590;8.854;2023-03-01T03:38:55;-1.70;99.90
18225;DHT22;9237;48.590;8.854;2023-03-01T03:41:22;-1.70;99.90
18225;DHT22;9237;48.590;8.854;2023-03-01T03:43:48;-1.70;99.90
18225;DHT22;9237;48.590;8.854;2023-03-01T03:46:15;-1.60;99.90
18225;DHT22;9237;48.590;8.854;2023-03-01T03:48:44;-1.60;99.90
18225;DHT22;9237;48.590;8.854;2023-03-01T03:51:12;-1.60;99.90
18225;DHT22;9237;48.590;8.854;2023-03-01T03:53:41;-1.60;99.90
18225;DHT22;9237;48.590;8.854;2023-03-01T03:56:08;-1.60;99.90
18225;DHT22;9237;48.590;8.854;2023-03-01T03:58:35;-1.60;99.90
18225;DHT22;9237;48.590;8.854;2023-03-01T04:01:03;-1.50;99.90
18225;DHT22;9237;48.590;8.854;2023-03-01T04:03:30;-1.50;99.90
18225;DHT22;9237;48.590;8.854;2023-03-01T04:05:58;-1.50;99.90
18225;DHT22;9237;48.590;8.854;2023-03-01T04:08:26;-1.40;99.90
18225;DHT22;9237;48.590;8.854;2023-03-01T04:10:57;-1.30;99.90
18225;DHT22;9237;48.590;8.854;2023-03-01T04:13:25;-1.40;99.90
18225;DHT22;9237;48.590;8.854;2023-03-01T04:15:52;-1.40;99.90
18225;DHT22;9237;48.590;8.854;2023-03-01T04:18:21;-1.40;99.90
18225;DHT22;9237;48.590;8.854;2023-03-01T04:20:48;-1.40;99.90
18225;DHT22;9237;48.590;8.854;2023-03-01T04:23:19;-1.40;99.90
18225;DHT22;9237;48.590;8.854;2023-03-01T04:25:48;-1.40;99.90
18225;DHT22;9237;48.590;8.854;2023-03-01T04:28:21;-1.40;99.90
18225;DHT22;9237;48.590;8.854;2023-03-01T04:30:50;-1.40;99.90
18225;DHT22;9237;48.590;8.854;2023-03-01T04:33:17;-1.30;99.90
18225;DHT22;9237;48.590;8.854;2023-03-01T04:35:44;-1.40;99.90
18225;DHT22;9237;48.590;8.854;2023-03-01T04:38:11;-1.30;99.90
18225;DHT22;9237;48.590;8.854;2023-03-01T04:40:38;-1.30;99.90
18225;DHT22;9237;48.590;8.854;2023-03-01T04:43:09;-1.30;99.90
18225;DHT22;9237;48.590;8.854;2023-03-01T04:45:37;-1.30;99.90
18225;DHT22;9237;48.590;8.854;2023-03-01T04:48:04;-1.30;99.90
18225;DHT22;9237;48.590;8.854;2023-03-01T04:50:31;-1.30;99.90
18225;DHT22;9237;48.590;8.854;2023-03-01T04:52:58;-1.20;99.90
18225;DHT22;9237;48.590;8.854;2023-03-01T04:55:26;-1.20;99.90
18225;DHT22;9237;48.590;8.854;2023-03-01T04:57:52;-1.10;99.90
18225;DHT22;9237;48.590;8.854;2023-03-01T05:00:20;-1.10;99.90
18225;DHT22;9237;48.590;8.854;2023-03-01T05:02:50;-1.10;99.90
18225;DHT22;9237;48.590;8.854;2023-03-01T05:05:20;-1.10;99.90
18225;DHT22;9237;48.590;8.854;2023-03-01T05:07:51;-1.00;99.90
18225;DHT22;9237;48.590;8.854;2023-03-01T05:10:18;-1.00;99.90
18225;DHT22;9237;48.590;8.854;2023-03-01T05:12:45;-1.00;99.90
18225;DHT22;9237;48.590;8.854;2023-03-01T05:15:12;-1.00;99.90
18225;DHT22;9237;48.590;8.854;2023-03-01T05:17:39;-1.00;99.90
18225;DHT22;9237;48.590;8.854;2023-03-01T05:20:09;-1.00;99.90
18225;DHT22;9237;48.590;8.854;2023-03-01T05:22:36;-1.00;99.90
18225;DHT22;9237;48.590;8.854;2023-03-01T05:25:04;-1.00;99.90
18225;DHT22;9237;48.590;8.854;2023-03-01T05:27:32;-1.00;99.90
18225;DHT22;9237;48.590;8.854;2023-03-01T05:29:59;-1.00;99.90
18225;DHT22;9237;48.590;8.854;2023-03-01T05:32:40;-0.90;99.90
18225;DHT22;9237;48.590;8.854;2023-03-01T05:35:08;-1.00;99.90
18225;DHT22;9237;48.590;8.854;2023-03-01T05:37:39;-0.90;99.90
18225;DHT22;9237;48.590;8.854;2023-03-01T05:40:06;-0.90;99.90
18225;DHT22;9237;48.590;8.854;2023-03-01T05:42:44;-0.90;99.90
18225;DHT22;9237;48.590;8.854;2023-03-01T05:45:11;-0.90;99.90
18225;DHT22;9237;48.590;8.854;2023-03-01T05:47:39;-0.80;99.90
18225;DHT22;9237;48.590;8.854;2023-03-01T05:50:11;-0.80;99.90
18225;DHT22;9237;48.590;8.854;2023-03-01T05:52:38;-0.90;99.90
18225;DHT22;9237;48.590;8.854;2023-03-01T05:55:06;-0.90;99.90
18225;DHT22;9237;48.590;8.854;2023-03-01T05:57:32;-0.80;99.90
18225;DHT22;9237;48.590;8.854;2023-03-01T05:59:59;-0.90;99.90
18225;DHT22;9237;48.590;8.854;2023-03-01T06:02:26;-0.90;99.90
18225;DHT22;9237;48.590;8.854;2023-03-01T06:04:54;-0.80;99.90
18225;DHT22;9237;48.590;8.854;2023-03-01T06:07:22;-0.80;99.90
18225;DHT22;9237;48.590;8.854;2023-03-01T06:09:49;-0.80;99.90
18225;DHT22;9237;48.590;8.854;2023-03-01T06:12:16;-0.80;99.90
18225;DHT22;9237;48.590;8.854;2023-03-01T06:14:42;-0.80;99.90
18225;DHT22;9237;48.590;8.854;2023-03-01T06:17:09;-0.80;99.90
18225;DHT22;9237;48.590;8.854;2023-03-01T06:19:36;-0.80;99.90
18225;DHT22;9237;48.590;8.854;2023-03-01T06:22:03;-0.70;99.90
18225;DHT22;9237;48.590;8.854;2023-03-01T06:24:31;-0.70;99.90
18225;DHT22;9237;48.590;8.854;2023-03-01T06:26:58;-0.70;99.90
18225;DHT22;9237;48.590;8.854;2023-03-01T06:29:25;-0.70;99.90
18225;DHT22;9237;48.590;8.854;2023-03-01T06:31:53;-0.70;99.90
18225;DHT22;9237;48.590;8.854;2023-03-01T06:34:19;-0.70;99.90
18225;DHT22;9237;48.590;8.854;2023-03-01T06:36:47;-0.70;99.90
18225;DHT22;9237;48.590;8.854;2023-03-01T06:39:14;-0.60;99.90
18225;DHT22;9237;48.590;8.854;2023-03-01T06:41:43;-0.60;99.90
18225;DHT22;9237;48.590;8.854;2023-03-01T06:44:10;-0.50;99.90
18225;DHT22;9237;48.590;8.854;2023-03-01T06:46:36;-0.40;99.90
18225;DHT22;9237;48.590;8.854;2023-03-01T06:49:03;-0.40;99.90
18225;DHT22;9237;48.590;8.854;2023-03-01T06:51:35;-0.30;99.90
18225;DHT22;9237;48.590;8.854;2023-03-01T06:54:02;-0.30;99.90
18225;DHT22;9237;48.590;8.854;2023-03-01T06:56:29;-0.10;99.90
18225;DHT22;9237;48.590;8.854;2023-03-01T06:58:57;0.00;99.90
18225;DHT22;9237;48.590;8.854;2023-03-01T07:01:24;0.20;99.90
18225;DHT22;9237;48.590;8.854;2023-03-01T07:03:51;0.40;99.90
18225;DHT22;9237;48.590;8.854;2023-03-01T07:06:17;0.50;99.90
18225;DHT22;9237;48.590;8.854;2023-03-01T07:08:45;0.60;99.90
18225;DHT22;9237;48.590;8.854;2023-03-01T07:11:11;0.70;99.90
18225;DHT22;9237;48.590;8.854;2023-03-01T07:13:38;0.80;99.90
18225;DHT22;9237;48.590;8.854;2023-03-01T07:16:07;0.80;99.90
18225;DHT22;9237;48.590;8.854;2023-03-01T07:18:34;1.00;99.90
18225;DHT22;9237;48.590;8.854;2023-03-01T07:21:04;1.10;99.90
18225;DHT22;9237;48.590;8.854;2023-03-01T07:23:31;1.20;99.90
18225;DHT22;9237;48.590;8.854;2023-03-01T07:25:58;1.20;99.90
18225;DHT22;9237;48.590;8.854;2023-03-01T07:28:26;1.20;99.90
18225;DHT22;9237;48.590;8.854;2023-03-01T07:30:53;1.40;99.90
18225;DHT22;9237;48.590;8.854;2023-03-01T07:33:21;1.80;99.90
18225;DHT22;9237;48.590;8.854;2023-03-01T07:35:48;1.80;99.90
18225;DHT22;9237;48.590;8.854;2023-03-01T07:38:15;1.90;99.90
18225;DHT22;9237;48.590;8.854;2023-03-01T07:40:41;2.10;99.90
18225;DHT22;9237;48.590;8.854;2023-03-01T07:43:08;2.20;99.90
18225;DHT22;9237;48.590;8.854;2023-03-01T07:45:35;2.10;99.90
18225;DHT22;9237;48.590;8.854;2023-03-01T07:48:02;1.90;99.90
18225;DHT22;9237;48.590;8.854;2023-03-01T07:50:30;2.10;99.90
18225;DHT22;9237;48.590;8.854;2023-03-01T07:52:57;2.20;99.90
18225;DHT22;9237;48.590;8.854;2023-03-01T07:55:24;2.40;99.90
18225;DHT22;9237;48.590;8.854;2023-03-01T07:57:50;2.40;99.90
18225;DHT22;9237;48.590;8.854;2023-03-01T08:00:18;2.30;99.90
18225;DHT22;9237;48.590;8.854;2023-03-01T08:02:45;2.50;99.90
18225;DHT22;9237;48.590;8.854;2023-03-01T08:05:12;2.70;99.90
18225;DHT22;9237;48.590;8.854;2023-03-01T08:07:40;2.30;99.90
18225;DHT22;9237;48.590;8.854;2023-03-01T08:10:08;2.50;99.90
18225;DHT22;9237;48.590;8.854;2023-03-01T08:12:35;2.80;99.90
18225;DHT22;9237;48.590;8.854;2023-03-01T08:15:02;3.00;99.90
18225;DHT22;9237;48.590;8.854;2023-03-01T08:17:29;3.70;99.90
18225;DHT22;9237;48.590;8.854;2023-03-01T08:19:56;4.30;98.60
18225;DHT22;9237;48.590;8.854;2023-03-01T08:22:22;4.40;97.60
18225;DHT22;9237;48.590;8.854;2023-03-01T08:24:51;4.60;97.60
18225;DHT22;9237;48.590;8.854;2023-03-01T08:27:18;4.60;97.40
18225;DHT22;9237;48.590;8.854;2023-03-01T08:29:45;4.70;97.00
18225;DHT22;9237;48.590;8.854;2023-03-01T08:32:11;4.10;96.70
18225;DHT22;9237;48.590;8.854;2023-03-01T08:34:38;3.60;97.60
18225;DHT22;9237;48.590;8.854;2023-03-01T08:37:05;3.90;97.20
18225;DHT22;9237;48.590;8.854;2023-03-01T08:39:32;4.00;97.20
18225;DHT22;9237;48.590;8.854;2023-03-01T08:42:00;4.60;97.00
18225;DHT22;9237;48.590;8.854;2023-03-01T08:44:27;4.70;96.40
18225;DHT22;9237;48.590;8.854;2023-03-01T08:46:53;5.00;95.80
18225;DHT22;9237;48.590;8.854;2023-03-01T08:49:21;5.00;95.20
18225;DHT22;9237;48.590;8.854;2023-03-01T08:51:48;5.10;95.20
18225;DHT22;9237;48.590;8.854;2023-03-01T08:54:16;4.60;95.60
18225;DHT22;9237;48.590;8.854;2023-03-01T08:56:44;5.60;94.90
18225;DHT22;9237;48.590;8.854;2023-03-01T08:59:13;5.60;94.40
18225;DHT22;9237;48.590;8.854;2023-03-01T09:01:40;6.20;93.90
18225;DHT22;9237;48.590;8.854;2023-03-01T09:04:09;6.00;93.40
18225;DHT22;9237;48.590;8.854;2023-03-01T09:06:37;4.80;94.20
18225;DHT22;9237;48.590;8.854;2023-03-01T09:09:05;5.20;94.80
18225;DHT22;9237;48.590;8.854;2023-03-01T09:11:33;5.30;93.40
18225;DHT22;9237;48.590;8.854;2023-03-01T09:14:00;4.70;93.50
18225;DHT22;9237;48.590;8.854;2023-03-01T09:16:28;4.20;94.00
18225;DHT22;9237;48.590;8.854;2023-03-01T09:18:59;4.30;94.30
18225;DHT22;9237;48.590;8.854;2023-03-01T09:21:26;3.90;94.40
18225;DHT22;9237;48.590;8.854;2023-03-01T09:23:53;4.40;94.10
18225;DHT22;9237;48.590;8.854;2023-03-01T09:26:22;4.80;95.00
18225;DHT22;9237;48.590;8.854;2023-03-01T09:28:51;5.20;93.20
18225;DHT22;9237;48.590;8.854;2023-03-01T09:31:19;4.60;93.20
18225;DHT22;9237;48.590;8.854;2023-03-01T09:33:49;4.30;94.30
18225;DHT22;9237;48.590;8.854;2023-03-01T09:36:18;3.90;94.10
18225;DHT22;9237;48.590;8.854;2023-03-01T09:38:46;4.20;94.70
18225;DHT22;9237;48.590;8.854;2023-03-01T09:41:29;4.20;94.60
18225;DHT22;9237;48.590;8.854;2023-03-01T09:44:02;4.60;93.90
18225;DHT22;9237;48.590;8.854;2023-03-01T09:46:33;4.90;93.60
18225;DHT22;9237;48.590;8.854;2023-03-01T09:49:10;4.20;94.00
18225;DHT22;9237;48.590;8.854;2023-03-01T09:51:38;4.80;94.00
18225;DHT22;9237;48.590;8.854;2023-03-01T09:54:06;4.80;93.20
18225;DHT22;9237;48.590;8.854;2023-03-01T09:56:36;4.60;93.80
18225;DHT22;9237;48.590;8.854;2023-03-01T09:59:15;5.00;93.10
18225;DHT22;9237;48.590;8.854;2023-03-01T10:01:52;5.20;93.30
18225;DHT22;9237;48.590;8.854;2023-03-01T10:04:41;4.30;93.10
18225;DHT22;9237;48.590;8.854;2023-03-01T10:07:27;4.00;93.60
18225;DHT22;9237;48.590;8.854;2023-03-01T10:09:57;4.10;93.50
18225;DHT22;9237;48.590;8.854;2023-03-01T10:12:31;4.50;94.10
18225;DHT22;9237;48.590;8.854;2023-03-01T10:15:04;5.00;93.40
18225;DHT22;9237;48.590;8.854;2023-03-01T10:17:35;5.40;92.60
18225;DHT22;9237;48.590;8.854;2023-03-01T10:20:17;4.90;92.20
18225;DHT22;9237;48.590;8.854;2023-03-01T10:22:44;4.20;93.10
18225;DHT22;9237;48.590;8.854;2023-03-01T10:25:17;4.00;94.00
18225;DHT22;9237;48.590;8.854;2023-03-01T10:27:51;4.40;93.60
18225;DHT22;9237;48.590;8.854;2023-03-01T10:30:21;4.60;92.80
18225;DHT22;9237;48.590;8.854;2023-03-01T10:32:51;4.50;93.30
18225;DHT22;9237;48.590;8.854;2023-03-01T10:35:22;4.70;93.00
18225;DHT22;9237;48.590;8.854;2023-03-01T10:38:03;4.40;92.60
18225;DHT22;9237;48.590;8.854;2023-03-01T10:40:30;4.40;92.90
18225;DHT22;9237;48.590;8.854;2023-03-01T10:42:58;4.60;92.70
18225;DHT22;9237;48.590;8.854;2023-03-01T10:45:34;4.60;92.30
18225;DHT22;9237;48.590;8.854;2023-03-01T10:48:12;4.80;92.90
18225;DHT22;9237;48.590;8.854;2023-03-01T10:50:42;4.80;93.00
18225;DHT22;9237;48.590;8.854;2023-03-01T10:53:22;4.80;92.60
18225;DHT22;9237;48.590;8.854;2023-03-01T10:55:57;4.90;92.50
18225;DHT22;9237;48.590;8.854;2023-03-01T10:58:25;4.70;92.70
18225;DHT22;9237;48.590;8.854;2023-03-01T11:00:53;4.70;92.40
18225;DHT22;9237;48.590;8.854;2023-03-01T11:03:24;4.80;92.40
18225;DHT22;9237;48.590;8.854;2023-03-01T11:05:59;4.90;92.30
18225;DHT22;9237;48.590;8.854;2023-03-01T11:08:30;5.30;92.60
18225;DHT22;9237;48.590;8.854;2023-03-01T11:11:17;5.50;91.80
18225;DHT22;9237;48.590;8.854;2023-03-01T11:13:51;5.00;91.60
18225;DHT22;9237;48.590;8.854;2023-03-01T11:16:24;5.20;91.50
18225;DHT22;9237;48.590;8.854;2023-03-01T11:19:00;4.80;91.70
18225;DHT22;9237;48.590;8.854;2023-03-01T11:21:30;5.20;92.50
18225;DHT22;9237;48.590;8.854;2023-03-01T11:24:00;5.10;91.60
18225;DHT22;9237;48.590;8.854;2023-03-01T11:26:30;5.40;92.00
18225;DHT22;9237;48.590;8.854;2023-03-01T11:29:02;5.50;91.30
18225;DHT22;9237;48.590;8.854;2023-03-01T11:31:31;5.80;91.80
18225;DHT22;9237;48.590;8.854;2023-03-01T11:34:05;5.50;91.10
18225;DHT22;9237;48.590;8.854;2023-03-01T11:36:41;5.50;91.00
18225;DHT22;9237;48.590;8.854;2023-03-01T11:39:18;5.40;90.90
18225;DHT22;9237;48.590;8.854;2023-03-01T11:41:49;5.50;91.30
18225;DHT22;9237;48.590;8.854;2023-03-01T11:44:23;5.60;90.80
18225;DHT22;9237;48.590;8.854;2023-03-01T11:47:07;5.70;90.70
18225;DHT22;9237;48.590;8.854;2023-03-01T11:49:48;5.80;90.40
18225;DHT22;9237;48.590;8.854;2023-03-01T11:52:25;5.60;90.30
18225;DHT22;9237;48.590;8.854;2023-03-01T11:55:16;5.60;90.70
18225;DHT22;9237;48.590;8.854;2023-03-01T11:57:57;5.40;90.80
18225;DHT22;9237;48.590;8.854;2023-03-01T12:00:40;5.40;90.90
18225;DHT22;9237;48.590;8.854;2023-03-01T12:03:26;5.60;90.90
18225;DHT22;9237;48.590;8.854;2023-03-01T12:11:49;5.90;90.10
18225;DHT22;9237;48.590;8.854;2023-03-01T12:14:36;6.20;90.20
18225;DHT22;9237;48.590;8.854;2023-03-01T12:17:29;6.40;89.30
18225;DHT22;9237;48.590;8.854;2023-03-01T12:20:09;6.50;89.70
18225;DHT22;9237;48.590;8.854;2023-03-01T12:22:51;6.80;88.50
18225;DHT22;9237;48.590;8.854;2023-03-01T12:25:28;6.30;89.70
18225;DHT22;9237;48.590;8.854;2023-03-01T12:31:05;6.40;89.40
18225;DHT22;9237;48.590;8.854;2023-03-01T12:33:43;6.00;90.00
18225;DHT22;9237;48.590;8.854;2023-03-01T12:36:31;6.40;89.30
18225;DHT22;9237;48.590;8.854;2023-03-01T12:39:20;6.40;88.60
18225;DHT22;9237;48.590;8.854;2023-03-01T12:41:59;6.60;88.90
18225;DHT22;9237;48.590;8.854;2023-03-01T12:44:46;6.60;87.40
18225;DHT22;9237;48.590;8.854;2023-03-01T12:47:23;6.50;88.30
18225;DHT22;9237;48.590;8.854;2023-03-01T12:49:56;6.60;87.20
18225;DHT22;9237;48.590;8.854;2023-03-01T12:52:33;6.40;87.70
18225;DHT22;9237;48.590;8.854;2023-03-01T12:55:08;6.20;87.90
18225;DHT22;9237;48.590;8.854;2023-03-01T12:57:40;6.50;88.60
18225;DHT22;9237;48.590;8.854;2023-03-01T13:00:22;6.50;87.70
18225;DHT22;9237;48.590;8.854;2023-03-01T13:02:57;6.30;86.80
18225;DHT22;9237;48.590;8.854;2023-03-01T13:05:37;6.10;88.10
18225;DHT22;9237;48.590;8.854;2023-03-01T13:08:13;6.60;88.70
18225;DHT22;9237;48.590;8.854;2023-03-01T13:10:46;6.60;86.50
18225;DHT22;9237;48.590;8.854;2023-03-01T13:13:20;6.60;87.00
18225;DHT22;9237;48.590;8.854;2023-03-01T13:15:47;6.70;87.60
18225;DHT22;9237;48.590;8.854;2023-03-01T13:18:32;7.80;86.20
18225;DHT22;9237;48.590;8.854;2023-03-01T13:21:03;7.00;85.50
18225;DHT22;9237;48.590;8.854;2023-03-01T13:23:34;7.00;84.80
18225;DHT22;9237;48.590;8.854;2023-03-01T13:26:10;7.30;86.20
18225;DHT22;9237;48.590;8.854;2023-03-01T13:28:50;7.60;84.90
18225;DHT22;9237;48.590;8.854;2023-03-01T13:34:52;6.60;85.40
18225;DHT22;9237;48.590;8.854;2023-03-01T13:37:29;6.60;85.50
18225;DHT22;9237;48.590;8.854;2023-03-01T13:39:58;6.60;86.00
18225;DHT22;9237;48.590;8.854;2023-03-01T13:42:42;7.20;85.60
18225;DHT22;9237;48.590;8.854;2023-03-01T13:45:26;7.10;83.80
18225;DHT22;9237;48.590;8.854;2023-03-01T13:48:02;7.30;83.80
18225;DHT22;9237;48.590;8.854;2023-03-01T13:50:36;7.50;83.20
18225;DHT22;9237;48.590;8.854;2023-03-01T13:53:05;8.00;81.40
18225;DHT22;9237;48.590;8.854;2023-03-01T13:55:37;9.00;79.60
18225;DHT22;9237;48.590;8.854;2023-03-01T13:58:12;10.60;74.20
18225;DHT22;9237;48.590;8.854;2023-03-01T14:00:42;10.50;72.60
18225;DHT22;9237;48.590;8.854;2023-03-01T14:03:12;10.20;73.20
18225;DHT22;9237;48.590;8.854;2023-03-01T14:05:40;10.30;73.90
18225;DHT22;9237;48.590;8.854;2023-03-01T14:08:22;10.50;73.70
18225;DHT22;9237;48.590;8.854;2023-03-01T14:11:07;10.00;73.70
18225;DHT22;9237;48.590;8.854;2023-03-01T14:13:47;9.80;72.40
18225;DHT22;9237;48.590;8.854;2023-03-01T14:16:27;10.20;72.40
18225;DHT22;9237;48.590;8.854;2023-03-01T14:19:07;9.80;73.60
18225;DHT22;9237;48.590;8.854;2023-03-01T14:21:36;10.40;72.20
18225;DHT22;9237;48.590;8.854;2023-03-01T14:24:04;10.60;71.70
18225;DHT22;9237;48.590;8.854;2023-03-01T14:26:31;9.70;73.10
18225;DHT22;9237;48.590;8.854;2023-03-01T14:29:02;9.80;72.60
18225;DHT22;9237;48.590;8.854;2023-03-01T14:31:36;10.60;71.20
18225;DHT22;9237;48.590;8.854;2023-03-01T14:34:04;10.50;70.00
18225;DHT22;9237;48.590;8.854;2023-03-01T14:36:32;11.10;70.90
18225;DHT22;9237;48.590;8.854;2023-03-01T14:38:59;10.20;71.60
18225;DHT22;9237;48.590;8.854;2023-03-01T14:41:33;10.30;71.00
18225;DHT22;9237;48.590;8.854;2023-03-01T14:44:02;10.30;71.30
18225;DHT22;9237;48.590;8.854;2023-03-01T14:46:33;10.30;71.90
18225;DHT22;9237;48.590;8.854;2023-03-01T14:49:03;10.10;72.50
18225;DHT22;9237;48.590;8.854;2023-03-01T14:51:35;9.50;73.50
18225;DHT22;9237;48.590;8.854;2023-03-01T14:54:04;10.20;72.80
18225;DHT22;9237;48.590;8.854;2023-03-01T14:56:44;10.60;71.30
18225;DHT22;9237;48.590;8.854;2023-03-01T14:59:11;10.60;71.20
18225;DHT22;9237;48.590;8.854;2023-03-01T15:01:41;10.80;70.90
18225;DHT22;9237;48.590;8.854;2023-03-01T15:04:11;10.20;72.50
18225;DHT22;9237;48.590;8.854;2023-03-01T15:06:39;10.40;71.20
18225;DHT22;9237;48.590;8.854;2023-03-01T15:09:07;10.10;72.60
18225;DHT22;9237;48.590;8.854;2023-03-01T15:11:38;10.40;72.40
18225;DHT22;9237;48.590;8.854;2023-03-01T15:14:28;10.20;71.90
18225;DHT22;9237;48.590;8.854;2023-03-01T15:16:56;10.50;71.60
18225;DHT22;9237;48.590;8.854;2023-03-01T15:19:27;10.90;70.60
18225;DHT22;9237;48.590;8.854;2023-03-01T15:21:55;10.30;72.90
18225;DHT22;9237;48.590;8.854;2023-03-01T15:24:24;10.40;71.20
18225;DHT22;9237;48.590;8.854;2023-03-01T15:26:55;10.30;71.00
18225;DHT22;9237;48.590;8.854;2023-03-01T15:29:24;9.80;71.80
18225;DHT22;9237;48.590;8.854;2023-03-01T15:31:58;9.90;71.70
18225;DHT22;9237;48.590;8.854;2023-03-01T15:34:28;9.90;71.80
18225;DHT22;9237;48.590;8.854;2023-03-01T15:36:56;9.40;73.70
18225;DHT22;9237;48.590;8.854;2023-03-01T15:39:43;9.40;74.20
18225;DHT22;9237;48.590;8.854;2023-03-01T15:42:38;9.20;74.40
18225;DHT22;9237;48.590;8.854;2023-03-01T15:45:08;8.80;75.60
18225;DHT22;9237;48.590;8.854;2023-03-01T15:47:39;8.90;74.60
18225;DHT22;9237;48.590;8.854;2023-03-01T15:50:16;9.00;74.80
18225;DHT22;9237;48.590;8.854;2023-03-01T15:52:44;9.00;75.90
18225;DHT22;9237;48.590;8.854;2023-03-01T15:55:16;8.40;76.80
18225;DHT22;9237;48.590;8.854;2023-03-01T15:57:43;8.80;76.40
18225;DHT22;9237;48.590;8.854;2023-03-01T16:00:12;8.90;77.00
18225;DHT22;9237;48.590;8.854;2023-03-01T16:02:42;8.70;76.80
18225;DHT22;9237;48.590;8.854;2023-03-01T16:05:17;8.80;77.20
18225;DHT22;9237;48.590;8.854;2023-03-01T16:07:45;8.50;77.70
18225;DHT22;9237;48.590;8.854;2023-03-01T16:10:12;8.80;78.50
18225;DHT22;9237;48.590;8.854;2023-03-01T16:12:39;8.40;78.20
18225;DHT22;9237;48.590;8.854;2023-03-01T16:15:13;8.40;78.00
18225;DHT22;9237;48.590;8.854;2023-03-01T16:17:43;7.90;79.60
18225;DHT22;9237;48.590;8.854;2023-03-01T16:20:11;7.60;80.40
18225;DHT22;9237;48.590;8.854;2023-03-01T16:22:41;7.20;82.10
18225;DHT22;9237;48.590;8.854;2023-03-01T16:25:09;6.70;83.60
18225;DHT22;9237;48.590;8.854;2023-03-01T16:27:35;6.40;85.10